Time;durP1;ratioP1;P1;durP2;ratioP2;P2;SDS_P1;SDS_P2;PMS_P1;PMS_P2;Temp;Humidity;BMP_temperature;BMP_pressure;BME280_temperature;BME280_humidity;BME280_pressure;Samples;Min_cycle;Max_cycle;Signal;HPM_P1;HPM_P2
2021/01/22 00:00:44;;;;;;;2.45;0.55;;;5.10;96.00;;;;;;5133033;28;20043;-56
2021/01/22 00:03:10;;;;;;;2.08;0.50;;;5.00;95.90;;;;;;5133239;27;20039;-56
2021/01/22 00:05:36;;;;;;;0.93;0.43;;;5.00;95.70;;;;;;5133111;28;20062;-55
2021/01/22 00:08:02;;;;;;;1.58;0.60;;;5.00;95.60;;;;;;5133202;27;20043;-56
2021/01/22 00:10:27;;;;;;;0.93;0.80;;;5.00;95.80;;;;;;5132956;28;20613;-56
2021/01/22 00:12:53;;;;;;;1.58;0.60;;;4.90;95.90;;;;;;5133272;28;20047;-56
2021/01/22 00:15:19;;;;;;;2.35;0.73;;;4.90;95.70;;;;;;5132913;27;20126;-56
2021/01/22 00:17:44;;;;;;;2.38;1.45;;;4.80;96.00;;;;;;5132995;28;20058;-56
2021/01/22 00:20:11;;;;;;;0.52;0.50;;;4.80;96.00;;;;;;5133096;27;20043;-56
2021/01/22 00:22:36;;;;;;;1.67;0.80;;;4.80;96.30;;;;;;5132877;27;20480;-56
2021/01/22 00:25:04;;;;;;;1.17;0.68;;;4.80;96.40;;;;;;5132668;28;20119;-56
2021/01/22 00:27:30;;;;;;;2.38;0.70;;;4.70;96.50;;;;;;5133244;27;20047;-56
2021/01/22 00:29:56;;;;;;;1.25;0.52;;;4.70;96.30;;;;;;5133036;27;20058;-56
2021/01/22 00:32:22;;;;;;;1.85;0.55;;;4.80;96.10;;;;;;5132718;28;20047;-56
2021/01/22 00:34:47;;;;;;;2.45;0.60;;;4.80;95.90;;;;;;5132844;28;20133;-56
2021/01/22 00:37:13;;;;;;;3.22;0.60;;;4.80;95.80;;;;;;5132610;28;20087;-56
2021/01/22 00:39:39;;;;;;;2.95;0.60;;;4.70;95.90;;;;;;5132801;28;20043;-56
2021/01/22 00:42:05;;;;;;;1.45;0.40;;;4.70;96.20;;;;;;5132836;27;20073;-56
2021/01/22 00:44:31;;;;;;;0.85;0.52;;;4.70;95.80;;;;;;5133158;27;20083;-56
2021/01/22 00:46:57;;;;;;;1.27;0.70;;;4.60;96.30;;;;;;5136742;27;20084;-56
2021/01/22 00:49:23;;;;;;;0.88;0.50;;;4.60;96.00;;;;;;5136517;27;20388;-56
2021/01/22 00:51:49;;;;;;;1.13;0.57;;;4.60;96.10;;;;;;5136902;27;20035;-56
2021/01/22 00:54:15;;;;;;;0.93;0.50;;;4.60;95.90;;;;;;5136347;27;20039;-56
2021/01/22 00:56:40;;;;;;;1.85;0.70;;;4.60;96.40;;;;;;5136289;27;20112;-56
2021/01/22 00:59:06;;;;;;;1.77;0.90;;;4.60;96.00;;;;;;5136361;27;20096;-56
2021/01/22 01:01:32;;;;;;;1.08;0.70;;;4.50;96.30;;;;;;5136289;27;20072;-56
2021/01/22 01:03:58;;;;;;;2.03;0.93;;;4.50;96.40;;;;;;5136276;27;20044;-56
2021/01/22 01:06:23;;;;;;;1.02;0.73;;;4.40;96.70;;;;;;5136356;27;20387;-56
2021/01/22 01:08:50;;;;;;;1.13;0.70;;;4.40;96.70;;;;;;5136239;27;20134;-56
2021/01/22 01:11:15;;;;;;;1.55;0.70;;;4.40;96.60;;;;;;5135987;27;20540;-56
2021/01/22 01:13:41;;;;;;;2.60;0.60;;;4.30;96.70;;;;;;5135941;27;20043;-56
2021/01/22 01:16:06;;;;;;;1.95;0.60;;;4.40;96.50;;;;;;5136159;27;20122;-55
2021/01/22 01:18:32;;;;;;;1.23;0.57;;;4.50;96.30;;;;;;5135902;27;20043;-56
2021/01/22 01:20:58;;;;;;;0.60;0.52;;;4.40;96.50;;;;;;5135906;27;20118;-56
2021/01/22 01:23:23;;;;;;;2.08;0.63;;;4.40;96.60;;;;;;5136052;27;20043;-56
2021/01/22 01:25:49;;;;;;;1.58;0.40;;;4.40;96.40;;;;;;5136330;27;20043;-56
2021/01/22 01:28:15;;;;;;;2.38;0.50;;;4.50;95.50;;;;;;5135775;27;20070;-56
2021/01/22 01:30:41;;;;;;;2.35;0.70;;;4.40;95.70;;;;;;5135608;27;20051;-55
2021/01/22 01:33:06;;;;;;;3.03;0.60;;;4.40;95.90;;;;;;5135484;27;20050;-56
2021/01/22 01:35:32;;;;;;;1.17;0.43;;;4.40;95.80;;;;;;5135582;27;20126;-56
2021/01/22 01:37:58;;;;;;;2.42;0.52;;;4.30;96.00;;;;;;5135250;27;20039;-56
2021/01/22 01:40:24;;;;;;;3.78;0.52;;;4.30;95.90;;;;;;5135500;27;20100;-56
2021/01/22 01:42:49;;;;;;;0.90;0.40;;;4.40;95.80;;;;;;5135529;27;20046;-56
2021/01/22 01:45:17;;;;;;;3.05;0.45;;;4.40;95.50;;;;;;5135617;27;20133;-56
2021/01/22 01:47:43;;;;;;;3.10;0.50;;;4.40;95.30;;;;;;5135742;27;20056;-56
2021/01/22 01:50:10;;;;;;;1.38;0.35;;;4.40;95.30;;;;;;5135560;27;20112;-56
2021/01/22 01:52:36;;;;;;;2.17;0.50;;;4.40;95.00;;;;;;5135448;27;20043;-56
2021/01/22 01:55:02;;;;;;;1.30;0.35;;;4.40;95.10;;;;;;5135320;27;20045;-56
2021/01/22 01:57:28;;;;;;;2.88;0.50;;;4.30;95.30;;;;;;5134824;27;20103;-56
2021/01/22 01:59:55;;;;;;;1.15;0.50;;;4.20;95.90;;;;;;5135127;27;20117;-56
2021/01/22 02:02:21;;;;;;;1.85;0.40;;;4.20;95.80;;;;;;5135288;27;20035;-56
2021/01/22 02:04:47;;;;;;;3.15;0.55;;;4.20;95.50;;;;;;5135090;27;20103;-56
2021/01/22 02:07:13;;;;;;;4.00;0.50;;;4.20;96.10;;;;;;5135122;27;20408;-54
2021/01/22 02:09:39;;;;;;;0.68;0.30;;;4.10;96.20;;;;;;5135245;27;20047;-56
2021/01/22 02:12:07;;;;;;;1.85;0.40;;;4.10;95.90;;;;;;5134894;27;20095;-56
2021/01/22 02:14:35;;;;;;;2.10;0.40;;;4.00;96.00;;;;;;5135418;27;20053;-56
2021/01/22 02:17:03;;;;;;;4.57;0.60;;;4.10;96.10;;;;;;5134909;27;20042;-56
2021/01/22 02:20:01;;;;;;;2.38;0.47;;;4.10;95.90;;;;;;5134759;27;20119;-56
2021/01/22 02:22:27;;;;;;;1.83;0.50;;;4.10;96.10;;;;;;5135113;27;20043;-56
2021/01/22 02:24:55;;;;;;;1.23;0.40;;;4.00;96.20;;;;;;5135168;27;20054;-56
2021/01/22 02:27:22;;;;;;;1.73;0.40;;;4.10;95.80;;;;;;5134865;27;20046;-56
2021/01/22 02:29:49;;;;;;;0.80;0.38;;;4.10;96.20;;;;;;5134702;27;20340;-56
2021/01/22 02:32:17;;;;;;;1.63;0.52;;;4.20;96.10;;;;;;5134574;27;20043;-55
2021/01/22 02:34:45;;;;;;;1.65;0.70;;;4.10;96.30;;;;;;5134751;27;20091;-55
2021/01/22 02:37:13;;;;;;;3.00;0.68;;;4.10;96.00;;;;;;5134628;27;20122;-56
2021/01/22 02:39:42;;;;;;;1.08;0.40;;;4.10;96.30;;;;;;5134603;27;20515;-56
2021/01/22 02:42:08;;;;;;;;;;;4.00;96.40;;;;;;5134725;27;20130;-56
2021/01/22 02:44:37;;;;;;;2.88;0.45;;;4.00;96.60;;;;;;5134561;27;19920;-56
2021/01/22 02:47:10;;;;;;;1.65;0.50;;;4.00;96.60;;;;;;5134670;27;20442;-56
2021/01/22 02:49:36;;;;;;;2.40;0.55;;;4.00;96.70;;;;;;5134212;27;20039;-56
2021/01/22 02:52:03;;;;;;;1.45;0.90;;;4.00;96.70;;;;;;5134268;27;20061;-56
2021/01/22 02:54:28;;;;;;;2.22;0.63;;;4.00;97.10;;;;;;5134336;27;20039;-55
2021/01/22 02:57:25;;;;;;;4.07;0.70;;;4.00;97.20;;;;;;5133873;27;20526;-55
2021/01/22 03:00:03;;;;;;;2.20;0.88;;;4.00;97.30;;;;;;5133551;27;20035;-56
2021/01/22 03:02:44;;;;;;;3.55;0.90;;;4.00;97.00;;;;;;5133800;27;20110;-55
2021/01/22 03:05:15;;;;;;;1.05;0.80;;;4.00;97.20;;;;;;5134050;27;20043;-56
2021/01/22 03:07:52;;;;;;;3.20;1.10;;;4.00;97.20;;;;;;5133447;27;20138;-56
2021/01/22 03:10:21;;;;;;;4.90;1.35;;;4.00;96.70;;;;;;5134196;27;20047;-56
2021/01/22 03:12:49;;;;;;;3.75;1.38;;;4.00;96.90;;;;;;5133983;27;20130;-56
2021/01/22 03:15:19;;;;;;;2.75;1.30;;;4.00;97.00;;;;;;5134117;27;20050;-56
2021/01/22 03:17:45;;;;;;;2.65;1.10;;;4.00;96.90;;;;;;5133784;27;20058;-55
2021/01/22 03:20:15;;;;;;;2.72;1.40;;;4.00;97.00;;;;;;5133685;27;20114;-56
2021/01/22 03:22:41;;;;;;;3.17;1.20;;;4.00;96.90;;;;;;5133490;27;20488;-55
2021/01/22 03:25:09;;;;;;;3.00;1.25;;;4.00;96.90;;;;;;5133857;27;20043;-55
2021/01/22 03:27:36;;;;;;;4.45;1.38;;;4.00;96.90;;;;;;5133626;27;20377;-55
2021/01/22 03:30:03;;;;;;;4.88;1.30;;;4.00;96.90;;;;;;5133579;27;20039;-56
2021/01/22 03:32:29;;;;;;;3.72;1.40;;;4.00;96.90;;;;;;5133446;27;20047;-56
2021/01/22 03:34:55;;;;;;;3.10;1.67;;;4.00;96.90;;;;;;5133688;27;20062;-55
2021/01/22 03:37:20;;;;;;;4.47;1.40;;;4.00;96.90;;;;;;5133568;27;20075;-55
2021/01/22 03:39:46;;;;;;;5.95;1.35;;;4.00;96.90;;;;;;5133574;27;20062;-56
2021/01/22 03:42:12;;;;;;;4.63;1.67;;;4.00;97.10;;;;;;5133185;27;20099;-56
2021/01/22 03:44:37;;;;;;;4.00;1.73;;;4.00;96.80;;;;;;5133223;27;20039;-56
2021/01/22 03:47:03;;;;;;;2.22;1.50;;;4.00;96.70;;;;;;5133288;27;20077;-56
2021/01/22 03:49:29;;;;;;;3.53;1.90;;;4.10;96.70;;;;;;5133481;27;20046;-55
2021/01/22 03:51:54;;;;;;;6.70;1.98;;;4.00;96.70;;;;;;5133472;27;20100;-56
2021/01/22 03:54:20;;;;;;;3.90;1.48;;;4.00;96.70;;;;;;5133086;27;20035;-56
2021/01/22 03:56:46;;;;;;;8.52;1.83;;;4.00;96.70;;;;;;5133210;27;20125;-53
2021/01/22 03:59:12;;;;;;;3.03;1.42;;;4.00;96.80;;;;;;5133103;27;20050;-55
2021/01/22 04:01:37;;;;;;;4.55;1.52;;;4.00;96.70;;;;;;5133247;27;20039;-56
2021/01/22 04:04:03;;;;;;;3.60;1.20;;;4.00;96.60;;;;;;5133053;28;20050;-56
2021/01/22 04:06:29;;;;;;;5.07;2.35;;;4.00;96.70;;;;;;5133366;27;20043;-56
2021/01/22 04:08:54;;;;;;;1.90;1.20;;;4.00;96.60;;;;;;5133374;27;20775;-55
2021/01/22 04:11:20;;;;;;;7.82;1.95;;;4.00;96.40;;;;;;5133137;28;20396;-55
2021/01/22 04:13:47;;;;;;;4.35;1.38;;;4.00;96.40;;;;;;5133000;27;20099;-55
2021/01/22 04:16:13;;;;;;;5.38;1.38;;;3.90;96.60;;;;;;5133085;27;20035;-56
2021/01/22 04:18:39;;;;;;;8.07;1.65;;;3.90;96.60;;;;;;5133157;27;20043;-55
2021/01/22 04:21:06;;;;;;;5.43;1.30;;;3.80;96.60;;;;;;5137447;27;20174;-55
2021/01/22 04:23:32;;;;;;;5.70;1.27;;;3.80;96.60;;;;;;5137194;27;20050;-54
2021/01/22 04:25:57;;;;;;;5.70;1.10;;;3.80;96.60;;;;;;5137275;27;20043;-56
2021/01/22 04:28:23;;;;;;;3.92;1.10;;;3.80;96.80;;;;;;5137143;27;20051;-55
2021/01/22 04:30:49;;;;;;;3.67;1.23;;;3.80;96.70;;;;;;5136811;27;20498;-56
2021/01/22 04:33:15;;;;;;;4.35;1.38;;;3.70;96.80;;;;;;5137154;27;20074;-56
2021/01/22 04:35:40;;;;;;;3.20;1.20;;;3.80;96.80;;;;;;5137117;27;20488;-55
2021/01/22 04:38:06;;;;;;;1.58;1.00;;;3.80;96.60;;;;;;5137012;27;20035;-56
2021/01/22 04:40:32;;;;;;;6.03;1.48;;;3.70;96.70;;;;;;5137013;27;20400;-56
2021/01/22 04:42:58;;;;;;;4.78;1.45;;;3.80;96.60;;;;;;5136838;27;20055;-55
2021/01/22 04:45:23;;;;;;;3.40;1.20;;;3.80;96.30;;;;;;5136764;27;20446;-56
2021/01/22 04:47:49;;;;;;;9.93;1.45;;;3.70;96.60;;;;;;5136823;27;20043;-55
2021/01/22 04:50:17;;;;;;;4.63;1.52;;;3.70;96.70;;;;;;5136771;27;20058;-56
2021/01/22 04:52:44;;;;;;;11.18;1.58;;;3.70;96.70;;;;;;5136587;27;20146;-56
2021/01/22 04:55:15;;;;;;;3.20;1.13;;;3.80;96.50;;;;;;5136622;27;20039;-55
2021/01/22 04:57:43;;;;;;;6.75;1.23;;;3.70;96.70;;;;;;5136336;27;20503;-56
2021/01/22 05:00:11;;;;;;;11.23;2.83;;;3.60;96.90;;;;;;5136387;27;20499;-56
2021/01/22 05:02:37;;;;;;;7.18;2.22;;;3.60;96.90;;;;;;5134561;27;20043;-56
2021/01/22 05:05:05;;;;;;;4.50;1.75;;;3.70;96.80;;;;;;5136509;27;20152;-56
2021/01/22 05:07:30;;;;;;;11.90;2.17;;;3.70;96.90;;;;;;5136402;27;20087;-55
2021/01/22 05:09:57;;;;;;;5.07;1.52;;;3.60;97.00;;;;;;5136071;27;20125;-56
2021/01/22 05:12:31;;;;;;;6.30;1.80;;;3.70;97.00;;;;;;5136116;27;20055;-56
2021/01/22 05:14:58;;;;;;;10.70;2.25;;;3.70;96.90;;;;;;5136236;27;20458;-55
2021/01/22 05:17:24;;;;;;;8.73;2.33;;;3.70;96.90;;;;;;5136373;27;20122;-56
2021/01/22 05:20:05;;;;;;;7.82;2.10;;;3.60;97.00;;;;;;5135997;27;20176;-56
2021/01/22 05:22:30;;;;;;;7.80;1.70;;;3.60;97.00;;;;;;5135935;27;20116;-56
2021/01/22 05:25:02;;;;;;;8.40;1.90;;;3.60;97.00;;;;;;5135798;27;20066;-56
2021/01/22 05:27:28;;;;;;;7.75;1.77;;;3.60;97.50;;;;;;5135997;27;20046;-55
2021/01/22 05:30:04;;;;;;;8.27;1.88;;;3.60;97.50;;;;;;5135977;27;20385;-56
2021/01/22 05:32:32;;;;;;;4.82;1.73;;;3.70;97.50;;;;;;5135254;27;20070;-56
2021/01/22 05:34:58;;;;;;;8.60;2.15;;;3.70;97.20;;;;;;5135506;27;20047;-56
2021/01/22 05:37:25;;;;;;;6.70;1.98;;;3.70;97.30;;;;;;5134799;27;20043;-55
2021/01/22 05:40:11;;;;;;;11.52;2.15;;;3.70;97.20;;;;;;5135451;27;20054;-55
2021/01/22 05:42:47;;;;;;;4.50;1.58;;;3.60;97.30;;;;;;5135530;27;20039;-56
2021/01/22 05:45:14;;;;;;;12.63;2.10;;;3.60;97.30;;;;;;5135702;27;20039;-56
2021/01/22 05:47:40;;;;;;;7.35;1.63;;;3.60;97.30;;;;;;5135534;27;20420;-56
2021/01/22 05:50:07;;;;;;;6.35;1.85;;;3.60;97.20;;;;;;5135455;27;20049;-56
2021/01/22 05:52:33;;;;;;;7.47;2.45;;;3.60;97.30;;;;;;5135400;27;20038;-55
2021/01/22 05:55:17;;;;;;;10.40;2.10;;;3.60;97.30;;;;;;5135322;27;20039;-56
2021/01/22 05:57:44;;;;;;;8.43;1.60;;;3.50;97.20;;;;;;5134977;27;20450;-56
2021/01/22 06:00:13;;;;;;;12.27;2.03;;;3.50;97.40;;;;;;5135191;27;20039;-55
2021/01/22 06:02:40;;;;;;;7.47;1.77;;;3.50;97.40;;;;;;5135370;27;20067;-56
2021/01/22 06:05:13;;;;;;;16.50;2.25;;;3.60;97.40;;;;;;5135692;27;20039;-56
2021/01/22 06:08:07;;;;;;;11.35;2.38;;;3.50;97.40;;;;;;5135310;27;20089;-56
2021/01/22 06:10:39;;;;;;;12.18;2.53;;;3.60;97.20;;;;;;5135053;27;20130;-56
2021/01/22 06:13:08;;;;;;;10.68;1.90;;;3.60;97.10;;;;;;5134941;27;20054;-56
2021/01/22 06:15:35;;;;;;;9.60;2.13;;;3.70;97.00;;;;;;5133907;27;20054;-56
2021/01/22 06:18:02;;;;;;;14.95;2.60;;;3.60;96.90;;;;;;5134772;27;20043;-55
2021/01/22 06:20:29;;;;;;;9.80;3.08;;;3.70;97.00;;;;;;5134915;27;20046;-56
2021/01/22 06:23:11;;;;;;;6.10;2.30;;;3.70;96.70;;;;;;5134793;27;20043;-55
2021/01/22 06:25:41;;;;;;;10.40;2.47;;;3.70;96.70;;;;;;5134770;27;20130;-55
2021/01/22 06:28:08;;;;;;;5.68;2.45;;;3.70;96.60;;;;;;5134783;27;20043;-56
2021/01/22 06:30:36;;;;;;;9.10;3.10;;;3.70;96.60;;;;;;5134780;27;20066;-56
2021/01/22 06:33:04;;;;;;;8.80;3.30;;;3.60;96.60;;;;;;5134717;27;20087;-56
2021/01/22 06:35:32;;;;;;;9.35;3.70;;;3.70;96.80;;;;;;5134616;27;20381;-55
2021/01/22 06:37:59;;;;;;;9.20;3.83;;;3.60;96.60;;;;;;5134428;27;20047;-56
2021/01/22 06:40:26;;;;;;;11.90;4.32;;;3.60;96.70;;;;;;5134289;27;20043;-56
2021/01/22 06:42:52;;;;;;;14.55;5.22;;;3.60;96.60;;;;;;5133457;27;20096;-56
2021/01/22 06:45:23;;;;;;;18.33;5.28;;;3.70;96.50;;;;;;5134582;27;20043;-56
2021/01/22 06:47:59;;;;;;;18.52;5.45;;;3.70;96.60;;;;;;5134721;27;20050;-56
2021/01/22 06:50:25;;;;;;;10.48;5.45;;;3.70;96.80;;;;;;5134604;27;20079;-56
2021/01/22 06:53:03;;;;;;;15.75;6.00;;;3.70;96.70;;;;;;5134205;27;20074;-56
2021/01/22 06:55:29;;;;;;;12.80;5.88;;;3.60;96.70;;;;;;5134090;27;20067;-55
2021/01/22 06:58:33;;;;;;;19.52;6.78;;;3.60;96.80;;;;;;5134212;27;20101;-56
2021/01/22 07:01:01;;;;;;;14.43;6.40;;;3.60;96.90;;;;;;5070705;28;20068;-55
2021/01/22 07:03:36;;;;;;;13.85;6.03;;;3.50;96.90;;;;;;5070843;28;20037;-56
2021/01/22 07:06:27;;;;;;;23.50;6.72;;;3.50;97.00;;;;;;5070910;28;20478;-56
2021/01/22 07:08:55;;;;;;;19.38;5.95;;;3.40;97.10;;;;;;5070577;28;20505;-56
2021/01/22 07:11:21;;;;;;;18.20;6.43;;;3.50;97.00;;;;;;5069738;28;20044;-55
2021/01/22 07:13:47;;;;;;;17.17;6.72;;;3.50;96.90;;;;;;5070225;28;20044;-56
2021/01/22 07:16:19;;;;;;;13.93;6.22;;;3.50;96.90;;;;;;5069933;28;20045;-55
2021/01/22 07:18:54;;;;;;;20.65;6.80;;;3.60;96.90;;;;;;5070400;28;20526;-55
2021/01/22 07:21:22;;;;;;;19.60;6.68;;;3.60;96.80;;;;;;5070442;28;20044;-56
2021/01/22 07:23:52;;;;;;;16.38;6.13;;;3.60;96.70;;;;;;5070161;28;20046;-56
2021/01/22 07:26:18;;;;;;;13.05;6.03;;;3.60;96.80;;;;;;5070369;28;20041;-56
2021/01/22 07:28:52;;;;;;;19.92;6.63;;;3.60;96.80;;;;;;5070448;28;20052;-56
2021/01/22 07:31:48;;;;;;;11.43;6.22;;;3.70;96.60;;;;;;5089608;27;20066;-55
2021/01/22 07:34:49;;;;;;;18.52;5.50;;;3.60;96.60;;;;;;5132618;27;20043;-55
2021/01/22 07:37:17;;;;;;;;;;;3.60;96.70;;;;;;5133159;27;20373;-55
2021/01/22 07:39:44;;;;;;;15.15;4.97;;;3.60;96.70;;;;;;5133300;27;19919;-56
2021/01/22 07:42:10;;;;;;;17.77;5.57;;;3.60;96.80;;;;;;5133077;27;20084;-55
2021/01/22 07:44:38;;;;;;;13.13;5.07;;;3.50;97.00;;;;;;5132885;27;20089;-55
2021/01/22 07:47:05;;;;;;;22.20;5.38;;;3.50;96.90;;;;;;5132772;27;20115;-56
2021/01/22 07:49:31;;;;;;;15.23;5.10;;;3.50;97.00;;;;;;5132837;27;20499;-56
2021/01/22 07:52:02;;;;;;;22.35;5.43;;;3.40;97.10;;;;;;5133324;27;20035;-55
2021/01/22 07:54:39;;;;;;;13.55;4.45;;;3.40;97.20;;;;;;5132548;27;20035;-55
2021/01/22 07:57:19;;;;;;;24.13;5.32;;;3.40;97.30;;;;;;5132976;27;20050;-55
2021/01/22 07:59:46;;;;;;;;;;;3.40;97.30;;;;;;5132915;27;20487;-56
2021/01/22 08:02:16;;;;;;;17.55;4.70;;;3.40;97.30;;;;;;5132638;27;20394;-56
2021/01/22 08:04:43;;;;;;;14.75;4.50;;;3.40;97.40;;;;;;5129879;28;20035;-55
2021/01/22 08:07:08;;;;;;;11.35;4.22;;;3.50;97.50;;;;;;5132549;27;20091;-55
2021/01/22 08:09:34;;;;;;;14.13;4.63;;;3.40;97.40;;;;;;5132527;28;20450;-55
2021/01/22 08:12:10;;;;;;;7.55;3.92;;;3.50;97.40;;;;;;5132144;28;20527;-55
2021/01/22 08:14:37;;;;;;;12.82;3.72;;;3.50;97.30;;;;;;5132378;27;20039;-55
2021/01/22 08:17:05;;;;;;;16.10;4.57;;;3.50;97.30;;;;;;5132342;27;20089;-55
2021/01/22 08:19:34;;;;;;;15.10;3.53;;;3.50;97.30;;;;;;5129797;28;20039;-55
2021/01/22 08:22:01;;;;;;;;;;;3.50;97.20;;;;;;5131790;27;20046;-55
2021/01/22 08:24:26;;;;;;;17.25;4.18;;;3.60;97.20;;;;;;5131523;27;20776;-55
2021/01/22 08:27:06;;;;;;;15.00;3.67;;;3.60;97.20;;;;;;5133543;27;20154;-55
2021/01/22 08:29:34;;;;;;;13.57;3.45;;;3.60;97.00;;;;;;5142977;27;20035;-55
2021/01/22 08:32:01;;;;;;;12.23;4.40;;;3.50;97.10;;;;;;5137827;27;20039;-55
2021/01/22 08:34:28;;;;;;;13.23;3.58;;;3.60;97.10;;;;;;5149647;27;20068;-55
2021/01/22 08:36:56;;;;;;;17.05;3.35;;;3.50;96.90;;;;;;5138910;27;20069;-58
2021/01/22 08:39:23;;;;;;;14.20;4.50;;;3.60;97.00;;;;;;5133707;27;20050;-58
2021/01/22 08:41:48;;;;;;;23.05;4.00;;;3.60;96.80;;;;;;5140970;27;20035;-57
2021/01/22 08:44:14;;;;;;;14.82;3.70;;;3.60;96.90;;;;;;5136187;27;20125;-58
2021/01/22 08:46:51;;;;;;;16.20;3.55;;;3.70;96.70;;;;;;5139543;27;20425;-58
2021/01/22 08:49:17;;;;;;;13.30;4.05;;;3.70;96.60;;;;;;5142265;27;20646;-58
2021/01/22 08:51:43;;;;;;;16.70;4.20;;;3.70;96.90;;;;;;5145484;27;20041;-58
2021/01/22 08:54:09;;;;;;;13.35;3.80;;;3.70;96.90;;;;;;5147170;27;20047;-58
2021/01/22 08:56:35;;;;;;;16.70;3.63;;;3.70;96.80;;;;;;5145591;27;20137;-58
2021/01/22 08:59:02;;;;;;;10.82;3.08;;;3.80;96.60;;;;;;5148685;27;20054;-58
2021/01/22 09:01:57;;;;;;;16.20;3.22;;;3.90;96.60;;;;;;5139331;27;20076;-58
2021/01/22 09:04:26;;;;;;;14.30;3.53;;;4.00;96.50;;;;;;5133641;27;20066;-58
2021/01/22 09:06:59;;;;;;;20.50;3.65;;;4.10;96.10;;;;;;5135875;27;20401;-58
2021/01/22 09:09:47;;;;;;;17.20;3.42;;;4.30;96.20;;;;;;5135810;27;20430;-57
2021/01/22 09:12:15;;;;;;;13.25;3.10;;;4.40;95.70;;;;;;5137524;27;20047;-58
2021/01/22 09:14:48;;;;;;;26.08;3.90;;;4.50;95.20;;;;;;5137349;27;20388;-58
2021/01/22 09:17:32;;;;;;;11.30;3.38;;;4.60;95.20;;;;;;5147164;27;20495;-58
2021/01/22 09:20:00;;;;;;;20.33;3.78;;;4.90;94.80;;;;;;5157979;27;20038;-58
2021/01/22 09:22:28;;;;;;;14.98;2.88;;;4.80;95.00;;;;;;5158160;27;20388;-58
2021/01/22 09:24:54;;;;;;;11.60;2.80;;;4.80;94.40;;;;;;5158012;27;20042;-58
2021/01/22 09:27:20;;;;;;;22.75;4.05;;;4.70;94.50;;;;;;5157666;27;20055;-57
2021/01/22 09:29:46;;;;;;;19.40;3.10;;;4.80;94.50;;;;;;5157702;27;20074;-58
2021/01/22 09:32:12;;;;;;;16.63;3.08;;;4.80;94.20;;;;;;5157821;27;20114;-58
2021/01/22 09:34:37;;;;;;;18.10;3.22;;;4.90;94.60;;;;;;5142482;27;20042;-58
2021/01/22 09:37:03;;;;;;;17.35;2.78;;;4.80;94.40;;;;;;5136974;27;20042;-58
2021/01/22 09:39:29;;;;;;;17.30;3.53;;;5.00;94.20;;;;;;5136754;27;20058;-58
2021/01/22 09:41:55;;;;;;;15.98;4.07;;;5.10;93.70;;;;;;5137029;27;20043;-58
2021/01/22 09:44:21;;;;;;;19.55;3.88;;;5.20;93.60;;;;;;5136827;27;20392;-58
2021/01/22 09:46:46;;;;;;;10.32;3.15;;;5.30;93.40;;;;;;5136508;27;20088;-58
2021/01/22 09:49:12;;;;;;;11.93;2.70;;;5.40;93.20;;;;;;5136353;27;20503;-59
2021/01/22 09:51:38;;;;;;;13.05;3.05;;;5.40;93.10;;;;;;5136588;27;20039;-59
2021/01/22 09:54:04;;;;;;;13.00;2.75;;;5.50;92.90;;;;;;5136466;27;20050;-58
2021/01/22 09:56:29;;;;;;;11.95;3.35;;;5.50;92.70;;;;;;5136298;27;20438;-59
2021/01/22 09:58:55;;;;;;;22.63;3.20;;;5.50;93.20;;;;;;5136468;27;20047;-58
2021/01/22 10:01:20;;;;;;;12.57;2.90;;;5.50;93.20;;;;;;5135597;27;20054;-59
2021/01/22 10:03:46;;;;;;;14.82;3.00;;;5.60;93.00;;;;;;5138223;27;20084;-59
2021/01/22 10:06:14;;;;;;;7.35;2.10;;;5.70;92.70;;;;;;5136229;27;20043;-59
2021/01/22 10:08:39;;;;;;;15.57;2.95;;;5.80;92.60;;;;;;5136230;27;20046;-58
2021/01/22 10:11:05;;;;;;;18.83;3.08;;;5.90;92.30;;;;;;5135538;27;20046;-58
2021/01/22 10:13:31;;;;;;;14.48;3.08;;;6.00;92.30;;;;;;5137657;27;20046;-58
2021/01/22 10:16:01;;;;;;;17.35;2.92;;;6.20;91.60;;;;;;5135706;27;20061;-59
2021/01/22 10:18:27;;;;;;;15.70;3.17;;;6.30;91.90;;;;;;5137768;27;20598;-59
2021/01/22 10:20:52;;;;;;;11.35;2.40;;;6.30;91.20;;;;;;5136179;27;20122;-59
2021/01/22 10:23:18;;;;;;;18.80;3.55;;;6.40;91.20;;;;;;5137599;27;20039;-59
2021/01/22 10:25:44;;;;;;;15.07;3.55;;;6.50;91.50;;;;;;5135779;27;20449;-59
2021/01/22 10:28:09;;;;;;;15.05;2.53;;;6.60;91.10;;;;;;5135217;27;20038;-58
2021/01/22 10:30:35;;;;;;;7.95;2.90;;;6.80;90.90;;;;;;5135233;27;20039;-59
2021/01/22 10:33:01;;;;;;;16.48;3.03;;;6.80;90.50;;;;;;5135214;27;20039;-59
2021/01/22 10:35:26;;;;;;;8.75;2.47;;;6.60;90.90;;;;;;5135945;27;20050;-58
2021/01/22 10:37:52;;;;;;;15.43;3.30;;;6.50;91.20;;;;;;5135599;27;20473;-59
2021/01/22 10:40:19;;;;;;;13.80;2.60;;;6.50;90.80;;;;;;5136430;27;20046;-58
2021/01/22 10:42:45;;;;;;;17.65;2.92;;;6.40;91.30;;;;;;5137066;27;20039;-58
2021/01/22 10:45:11;;;;;;;22.65;3.08;;;6.40;91.60;;;;;;5152314;27;20039;-59
2021/01/22 10:47:37;;;;;;;19.20;3.85;;;6.30;91.30;;;;;;5142349;27;20376;-58
2021/01/22 10:50:04;;;;;;;14.85;3.08;;;6.30;91.50;;;;;;5145713;27;20047;-58
2021/01/22 10:52:30;;;;;;;12.68;2.67;;;6.30;91.40;;;;;;5149781;27;20070;-58
2021/01/22 10:54:56;;;;;;;16.38;3.13;;;6.30;91.80;;;;;;5155598;27;20077;-59
2021/01/22 10:57:21;;;;;;;20.48;2.97;;;6.20;91.50;;;;;;5155867;27;20103;-58
2021/01/22 10:59:47;;;;;;;18.70;3.70;;;6.30;91.90;;;;;;5155897;27;20459;-58
2021/01/22 11:02:13;;;;;;;10.88;2.95;;;6.30;91.50;;;;;;5155901;27;20099;-58
2021/01/22 11:04:41;;;;;;;15.38;3.65;;;6.50;91.10;;;;;;5155914;27;20072;-58
2021/01/22 11:07:08;;;;;;;17.35;3.17;;;6.70;91.20;;;;;;5155914;27;20042;-58
2021/01/22 11:09:34;;;;;;;11.07;2.53;;;6.80;90.40;;;;;;5139221;27;20509;-58
2021/01/22 11:12:04;;;;;;;15.05;3.00;;;6.80;89.70;;;;;;5134712;27;20059;-59
2021/01/22 11:14:30;;;;;;;10.93;2.38;;;6.90;90.40;;;;;;5135193;27;20400;-58
2021/01/22 11:16:56;;;;;;;12.55;2.50;;;7.00;88.00;;;;;;5134816;27;20047;-58
2021/01/22 11:19:21;;;;;;;9.18;2.35;;;6.80;87.30;;;;;;5134743;27;20043;-59
2021/01/22 11:21:47;;;;;;;12.70;2.83;;;6.80;87.70;;;;;;5134891;27;20465;-58
2021/01/22 11:24:13;;;;;;;16.77;3.55;;;6.70;89.10;;;;;;5134806;27;20512;-58
2021/01/22 11:26:38;;;;;;;11.52;3.15;;;6.80;87.90;;;;;;5134534;27;20086;-58
2021/01/22 11:29:04;;;;;;;15.73;3.22;;;6.80;89.30;;;;;;5133843;27;20070;-58
2021/01/22 11:31:30;;;;;;;20.05;3.33;;;6.90;88.70;;;;;;5133990;27;20047;-58
2021/01/22 11:33:55;;;;;;;17.02;3.42;;;7.00;87.20;;;;;;5134534;27;20042;-58
2021/01/22 11:36:23;;;;;;;13.85;3.10;;;7.00;88.30;;;;;;5134448;27;20047;-58
2021/01/22 11:38:48;;;;;;;13.32;4.63;;;7.00;87.00;;;;;;5134177;27;20071;-59
2021/01/22 11:41:15;;;;;;;13.13;2.80;;;6.90;85.60;;;;;;5134395;27;20076;-58
2021/01/22 11:43:41;;;;;;;9.10;2.83;;;6.90;86.30;;;;;;5134312;27;20043;-58
2021/01/22 11:46:07;;;;;;;16.17;2.60;;;6.90;85.70;;;;;;5134350;27;20395;-58
2021/01/22 11:48:32;;;;;;;18.13;2.90;;;6.90;86.30;;;;;;5134384;27;20480;-58
2021/01/22 11:50:58;;;;;;;19.25;3.22;;;6.90;87.60;;;;;;5133982;27;20438;-58
2021/01/22 11:53:24;;;;;;;16.92;2.63;;;6.90;86.40;;;;;;5133845;27;20294;-59
2021/01/22 11:55:50;;;;;;;17.48;2.40;;;6.90;86.10;;;;;;5133745;27;20141;-58
2021/01/22 11:58:16;;;;;;;16.73;3.28;;;6.80;86.00;;;;;;5134164;27;20348;-58
2021/01/22 12:00:41;;;;;;;10.88;1.80;;;6.80;87.20;;;;;;5133850;27;20039;-58
2021/01/22 12:03:07;;;;;;;14.10;3.47;;;6.70;86.50;;;;;;5134145;27;20077;-58
2021/01/22 12:05:33;;;;;;;13.50;2.80;;;6.70;86.40;;;;;;5134154;28;20543;-58
2021/01/22 12:07:59;;;;;;;13.40;1.95;;;6.70;87.00;;;;;;5133789;28;20496;-58
2021/01/22 12:10:24;;;;;;;19.48;2.60;;;6.70;85.70;;;;;;5137370;27;20046;-58
2021/01/22 12:12:50;;;;;;;19.90;2.95;;;6.80;84.60;;;;;;5148831;27;20388;-58
2021/01/22 12:15:16;;;;;;;17.52;3.58;;;6.80;85.70;;;;;;5132825;28;20047;-59
2021/01/22 12:17:42;;;;;;;13.43;2.70;;;7.00;86.90;;;;;;5139183;27;20096;-58
2021/01/22 12:20:08;;;;;;;10.43;2.60;;;7.00;83.50;;;;;;5134195;28;20477;-59
2021/01/22 12:22:33;;;;;;;19.40;2.92;;;7.10;83.70;;;;;;5134319;27;20039;-58
2021/01/22 12:24:59;;;;;;;18.08;3.00;;;7.10;84.50;;;;;;5134045;27;20092;-58
2021/01/22 12:27:25;;;;;;;9.73;2.47;;;7.00;82.60;;;;;;5133786;28;20074;-58
2021/01/22 12:29:50;;;;;;;9.20;2.08;;;6.90;82.60;;;;;;5133677;27;20473;-58
2021/01/22 12:32:16;;;;;;;15.75;2.97;;;6.80;80.00;;;;;;5133754;27;20070;-58
2021/01/22 12:34:43;;;;;;;17.60;2.35;;;6.70;81.90;;;;;;5133539;28;20066;-59
2021/01/22 12:37:09;;;;;;;15.68;1.92;;;6.60;80.10;;;;;;5133694;27;20118;-59
2021/01/22 12:39:35;;;;;;;15.27;2.60;;;6.50;80.80;;;;;;5133391;27;20139;-58
2021/01/22 12:42:02;;;;;;;11.27;2.40;;;6.50;82.20;;;;;;5135960;27;20047;-58
2021/01/22 12:44:27;;;;;;;9.18;2.45;;;6.50;81.30;;;;;;5137737;27;20039;-59
2021/01/22 12:46:53;;;;;;;17.42;2.55;;;6.40;83.40;;;;;;5137295;27;20043;-58
2021/01/22 12:49:19;;;;;;;11.35;2.42;;;6.50;80.50;;;;;;5137399;27;20043;-58
2021/01/22 12:51:44;;;;;;;14.95;2.80;;;6.50;81.50;;;;;;5137150;27;20070;-58
2021/01/22 12:54:10;;;;;;;12.88;2.25;;;6.60;80.10;;;;;;5137305;27;20047;-58
2021/01/22 12:56:36;;;;;;;10.68;1.90;;;6.70;79.90;;;;;;5136942;27;20134;-58